Time,TemperatureF,DewpointF,PressureIn,WindDirection,WindDirectionDegrees,WindSpeedMPH,WindSpeedGustMPH,Humidity,HourlyPrecipIn,Conditions,Clouds,dailyrainin,SolarRadiationWatts/m^2,SoftwareType,DateUTC
2013-01-24 00:02:00,25.0,7.0,-100.00,WSW,246,1.0,4.0,46,0.00,,,0.00,0.000000,,2013-01-24 07:02:00,
2013-01-24 00:12:00,25.0,7.0,-100.00,WSW,246,1.0,4.0,46,0.00,,,0.00,0.000000,,2013-01-24 07:12:00,
2013-01-24 00:34:00,23.0,7.0,-100.00,South,173,2.0,4.0,50,0.00,,,0.00,0.000000,,2013-01-24 07:34:00,
2013-01-24 00:43:00,23.0,7.0,-100.00,South,173,2.0,4.0,50,0.00,,,0.00,0.000000,,2013-01-24 07:43:00,
2013-01-24 00:53:00,23.0,7.0,-100.00,South,173,2.0,4.0,50,0.00,,,0.00,0.000000,,2013-01-24 07:53:00,
2013-01-24 01:02:00,23.0,7.0,-100.00,South,173,2.0,4.0,50,0.00,,,0.00,0.000000,,2013-01-24 08:02:00,
2013-01-24 01:12:00,23.0,7.0,-100.00,South,173,2.0,4.0,50,0.00,,,0.00,0.000000,,2013-01-24 08:12:00,
2013-01-24 01:13:00,23.0,7.0,-100.00,NNW,327,0.0,4.0,50,0.00,,,0.00,0.000000,,2013-01-24 08:13:00,
2013-01-24 01:43:00,23.0,7.0,-100.00,NNW,327,0.0,4.0,50,0.00,,,0.00,0.000000,,2013-01-24 08:43:00,
2013-01-24 01:53:00,23.0,7.0,-100.00,NNW,327,0.0,4.0,50,0.00,,,0.00,0.000000,,2013-01-24 08:53:00,
2013-01-24 02:03:00,23.0,7.0,-100.00,NNW,327,0.0,4.0,50,0.00,,,0.00,0.000000,,2013-01-24 09:03:00,
2013-01-24 02:33:00,22.0,8.0,-100.00,SSE,167,4.0,5.0,53,0.00,,,0.00,0.000000,,2013-01-24 09:33:00,
2013-01-24 02:43:00,22.0,8.0,-100.00,SSE,167,4.0,5.0,53,0.00,,,0.00,0.000000,,2013-01-24 09:43:00,
2013-01-24 02:53:00,22.0,8.0,-100.00,SSE,167,4.0,5.0,53,0.00,,,0.00,0.000000,,2013-01-24 09:53:00,
2013-01-24 03:03:00,22.0,8.0,-100.00,SSE,167,4.0,5.0,53,0.00,,,0.00,0.000000,,2013-01-24 10:03:00,
2013-01-24 03:12:00,22.0,8.0,-100.00,SSE,167,4.0,5.0,53,0.00,,,0.00,0.000000,,2013-01-24 10:12:00,
2013-01-24 03:34:00,22.0,8.0,-100.00,South,169,3.0,5.0,54,0.00,,,0.00,0.000000,,2013-01-24 10:34:00,
2013-01-24 03:43:00,22.0,8.0,-100.00,South,169,3.0,5.0,54,0.00,,,0.00,0.000000,,2013-01-24 10:43:00,
2013-01-24 03:53:00,22.0,8.0,-100.00,South,169,3.0,5.0,54,0.00,,,0.00,0.000000,,2013-01-24 10:53:00,
2013-01-24 04:02:00,22.0,8.0,-100.00,South,169,3.0,5.0,54,0.00,,,0.00,0.000000,,2013-01-24 11:02:00,
2013-01-24 04:12:00,22.0,8.0,-100.00,South,169,3.0,5.0,54,0.00,,,0.00,0.000000,,2013-01-24 11:12:00,
2013-01-24 04:33:00,21.0,8.0,-100.00,SSE,159,2.0,6.0,57,0.00,,,0.00,0.000000,,2013-01-24 11:33:00,
2013-01-24 04:43:00,21.0,8.0,-100.00,SSE,159,2.0,6.0,57,0.00,,,0.00,0.000000,,2013-01-24 11:43:00,
2013-01-24 04:53:00,21.0,8.0,-100.00,SSE,159,2.0,6.0,57,0.00,,,0.00,0.000000,,2013-01-24 11:53:00,
2013-01-24 05:03:00,21.0,8.0,-100.00,SSE,159,2.0,6.0,57,0.00,,,0.00,0.000000,,2013-01-24 12:03:00,
2013-01-24 05:12:00,21.0,8.0,-100.00,SSE,159,2.0,6.0,57,0.00,,,0.00,0.000000,,2013-01-24 12:12:00,
2013-01-24 05:33:00,20.0,9.0,-100.00,ESE,110,3.0,5.0,62,0.00,,,0.00,0.000000,,2013-01-24 12:33:00,
2013-01-24 05:43:00,20.0,9.0,-100.00,ESE,110,3.0,5.0,62,0.00,,,0.00,0.000000,,2013-01-24 12:43:00,
2013-01-24 05:53:00,20.0,9.0,-100.00,ESE,110,3.0,5.0,62,0.00,,,0.00,0.000000,,2013-01-24 12:53:00,
2013-01-24 06:03:00,20.0,9.0,-100.00,ESE,110,3.0,5.0,62,0.00,,,0.00,0.000000,,2013-01-24 13:03:00,
2013-01-24 06:12:00,20.0,9.0,-100.00,ESE,110,3.0,5.0,62,0.00,,,0.00,0.000000,,2013-01-24 13:12:00,
2013-01-24 07:43:00,19.0,9.0,-100.00,SW,217,0.0,6.0,64,-99.99,,,0.00,0.000000,,2013-01-24 14:43:00,
2013-01-24 07:54:00,19.0,9.0,-100.00,SW,217,0.0,6.0,64,-99.99,,,0.00,0.000000,,2013-01-24 14:54:00,
2013-01-24 08:03:00,19.0,9.0,-100.00,SW,217,0.0,6.0,64,-99.99,,,0.00,0.000000,,2013-01-24 15:03:00,
2013-01-24 08:12:00,19.0,9.0,-100.00,SW,217,0.0,6.0,64,-99.99,,,0.00,0.000000,,2013-01-24 15:12:00,
2013-01-24 08:43:00,20.0,9.0,-100.00,SE,136,2.0,5.0,61,0.00,,,0.00,19.000000,,2013-01-24 15:43:00,
2013-01-24 08:53:00,20.0,9.0,-100.00,SE,136,2.0,5.0,61,0.00,,,0.00,19.000000,,2013-01-24 15:53:00,
2013-01-24 09:03:00,20.0,9.0,-100.00,SE,136,2.0,5.0,61,0.00,,,0.00,19.000000,,2013-01-24 16:03:00,
2013-01-24 09:12:00,20.0,9.0,-100.00,SE,136,2.0,5.0,61,0.00,,,0.00,19.000000,,2013-01-24 16:12:00,
2013-01-24 09:33:00,26.0,11.0,-100.00,South,188,4.0,6.0,52,0.00,,,0.00,131.000000,,2013-01-24 16:33:00,
2013-01-24 09:43:00,26.0,11.0,-100.00,South,188,4.0,6.0,52,0.00,,,0.00,131.000000,,2013-01-24 16:43:00,
2013-01-24 10:02:00,26.0,11.0,-100.00,South,188,4.0,6.0,52,0.00,,,0.00,131.000000,,2013-01-24 17:02:00,
2013-01-24 10:12:00,26.0,11.0,-100.00,South,188,4.0,6.0,52,0.00,,,0.00,131.000000,,2013-01-24 17:12:00,
2013-01-24 10:43:00,33.0,10.0,-100.00,South,174,3.0,6.0,38,0.00,,,0.00,331.000000,,2013-01-24 17:43:00,
2013-01-24 10:52:00,33.0,10.0,-100.00,South,174,3.0,6.0,38,0.00,,,0.00,331.000000,,2013-01-24 17:52:00,
2013-01-24 11:02:00,33.0,10.0,-100.00,South,174,3.0,6.0,38,0.00,,,0.00,331.000000,,2013-01-24 18:02:00,
2013-01-24 11:12:00,33.0,10.0,-100.00,South,174,3.0,6.0,38,0.00,,,0.00,331.000000,,2013-01-24 18:12:00,
2013-01-24 11:33:00,37.0,12.0,-100.00,SSE,151,4.0,8.0,35,0.00,,,0.00,496.000000,,2013-01-24 18:33:00,
2013-01-24 11:43:00,37.0,12.0,-100.00,SSE,151,4.0,8.0,35,0.00,,,0.00,496.000000,,2013-01-24 18:43:00,
2013-01-24 11:53:00,37.0,12.0,-100.00,SSE,151,4.0,8.0,35,0.00,,,0.00,496.000000,,2013-01-24 18:53:00,
2013-01-24 12:02:00,37.0,12.0,-100.00,SSE,151,4.0,8.0,35,0.00,,,0.00,496.000000,,2013-01-24 19:02:00,
2013-01-24 12:12:00,37.0,12.0,-100.00,SSE,151,4.0,8.0,35,0.00,,,0.00,496.000000,,2013-01-24 19:12:00,
2013-01-24 12:33:00,49.0,16.0,-100.00,SW,219,5.0,11.0,26,0.00,,,0.00,673.000000,,2013-01-24 19:33:00,
2013-01-24 12:42:00,49.0,16.0,-100.00,SW,219,5.0,11.0,26,0.00,,,0.00,673.000000,,2013-01-24 19:42:00,
2013-01-24 12:53:00,49.0,16.0,-100.00,SW,219,5.0,11.0,26,0.00,,,0.00,673.000000,,2013-01-24 19:53:00,
2013-01-24 13:02:00,49.0,16.0,-100.00,SW,219,5.0,11.0,26,0.00,,,0.00,673.000000,,2013-01-24 20:02:00,
2013-01-24 13:11:00,49.0,16.0,-100.00,SW,219,5.0,11.0,26,0.00,,,0.00,673.000000,,2013-01-24 20:11:00,
2013-01-24 13:33:00,48.0,20.0,-100.00,SW,216,7.0,18.0,32,0.00,,,-99.99,766.000000,,2013-01-24 20:33:00,
2013-01-24 13:43:00,48.0,20.0,-100.00,SW,216,7.0,18.0,32,0.00,,,-99.99,766.000000,,2013-01-24 20:43:00,
2013-01-24 13:52:00,48.0,20.0,-100.00,SW,216,7.0,18.0,32,0.00,,,-99.99,766.000000,,2013-01-24 20:52:00,
2013-01-24 14:02:00,48.0,20.0,-100.00,SW,216,7.0,18.0,32,0.00,,,-99.99,766.000000,,2013-01-24 21:02:00,
2013-01-24 14:12:00,48.0,20.0,-100.00,SW,216,7.0,18.0,32,0.00,,,-99.99,766.000000,,2013-01-24 21:12:00,
2013-01-24 14:43:00,40.0,27.0,-100.00,SW,225,5.0,17.0,59,0.00,,,0.00,456.000000,,2013-01-24 21:43:00,
2013-01-24 14:53:00,40.0,27.0,-100.00,SW,225,5.0,17.0,59,0.00,,,0.00,456.000000,,2013-01-24 21:53:00,
2013-01-24 15:03:00,40.0,27.0,-100.00,SW,225,5.0,17.0,59,0.00,,,0.00,456.000000,,2013-01-24 22:03:00,
2013-01-24 15:12:00,40.0,27.0,-100.00,SW,225,5.0,17.0,59,0.00,,,0.00,456.000000,,2013-01-24 22:12:00,
2013-01-24 15:33:00,38.0,29.0,-100.00,WSW,242,6.0,19.0,70,0.00,,,0.00,196.000000,,2013-01-24 22:33:00,
2013-01-24 15:42:00,38.0,29.0,-100.00,WSW,242,6.0,19.0,70,0.00,,,0.00,196.000000,,2013-01-24 22:42:00,
2013-01-24 15:53:00,38.0,29.0,-100.00,WSW,242,6.0,19.0,70,0.00,,,0.00,196.000000,,2013-01-24 22:53:00,
2013-01-24 16:02:00,38.0,29.0,-100.00,WSW,242,6.0,19.0,70,0.00,,,0.00,196.000000,,2013-01-24 23:02:00,
2013-01-24 16:12:00,38.0,29.0,-100.00,WSW,242,6.0,19.0,70,0.00,,,0.00,196.000000,,2013-01-24 23:12:00,
2013-01-24 16:32:00,37.0,29.0,-100.00,SW,214,5.0,13.0,74,0.00,,,0.00,140.000000,,2013-01-24 23:32:00,
2013-01-24 16:42:00,37.0,29.0,-100.00,SW,214,5.0,13.0,74,0.00,,,0.00,140.000000,,2013-01-24 23:42:00,
2013-01-24 16:52:00,37.0,29.0,-100.00,SW,214,5.0,13.0,74,0.00,,,0.00,140.000000,,2013-01-24 23:52:00,
2013-01-24 17:02:00,37.0,29.0,-100.00,SW,214,5.0,13.0,74,0.00,,,0.00,140.000000,,2013-01-25 00:02:00,
2013-01-24 17:12:00,37.0,29.0,-100.00,SW,214,5.0,13.0,74,0.00,,,0.00,140.000000,,2013-01-25 00:12:00,
2013-01-24 17:32:00,36.0,29.0,-100.00,SSW,194,2.0,11.0,76,0.00,,,0.00,31.000000,,2013-01-25 00:32:00,
2013-01-24 17:42:00,36.0,29.0,-100.00,SSW,194,2.0,11.0,76,0.00,,,0.00,31.000000,,2013-01-25 00:42:00,
2013-01-24 17:53:00,36.0,29.0,-100.00,SSW,194,2.0,11.0,76,0.00,,,0.00,31.000000,,2013-01-25 00:53:00,
2013-01-24 18:02:00,36.0,29.0,-100.00,SSW,194,2.0,11.0,76,0.00,,,0.00,31.000000,,2013-01-25 01:02:00,
2013-01-24 18:12:00,36.0,29.0,-100.00,SSW,194,2.0,11.0,76,0.00,,,0.00,31.000000,,2013-01-25 01:12:00,
2013-01-24 18:32:00,34.0,30.0,-100.00,South,179,1.0,8.0,86,0.00,,,0.00,0.000000,,2013-01-25 01:32:00,
2013-01-24 18:42:00,34.0,30.0,-100.00,South,179,1.0,8.0,86,0.00,,,0.00,0.000000,,2013-01-25 01:42:00,
2013-01-24 18:52:00,34.0,30.0,-100.00,South,179,1.0,8.0,86,0.00,,,0.00,0.000000,,2013-01-25 01:52:00,
2013-01-24 19:02:00,34.0,30.0,-100.00,South,179,1.0,8.0,86,0.00,,,0.00,0.000000,,2013-01-25 02:02:00,
2013-01-24 19:11:00,34.0,30.0,-100.00,South,179,1.0,8.0,86,0.00,,,0.00,0.000000,,2013-01-25 02:11:00,
2013-01-24 19:33:00,34.0,31.0,-100.00,SE,126,3.0,8.0,90,0.00,,,0.00,0.000000,,2013-01-25 02:33:00,
2013-01-24 19:43:00,34.0,31.0,-100.00,SE,126,3.0,8.0,90,0.00,,,0.00,0.000000,,2013-01-25 02:43:00,
2013-01-24 19:53:00,34.0,31.0,-100.00,SE,126,3.0,8.0,90,0.00,,,0.00,0.000000,,2013-01-25 02:53:00,
2013-01-24 20:02:00,34.0,31.0,-100.00,SE,126,3.0,8.0,90,0.00,,,0.00,0.000000,,2013-01-25 03:02:00,
2013-01-24 20:12:00,34.0,31.0,-100.00,SE,126,3.0,8.0,90,0.00,,,0.00,0.000000,,2013-01-25 03:12:00,
2013-01-24 20:33:00,34.0,31.0,-100.00,South,171,5.0,9.0,88,0.00,,,0.00,0.000000,,2013-01-25 03:33:00,
2013-01-24 20:42:00,34.0,31.0,-100.00,South,171,5.0,9.0,88,0.00,,,0.00,0.000000,,2013-01-25 03:42:00,
2013-01-24 20:52:00,34.0,31.0,-100.00,South,171,5.0,9.0,88,0.00,,,0.00,0.000000,,2013-01-25 03:52:00,
2013-01-24 21:02:00,34.0,31.0,-100.00,South,171,5.0,9.0,88,0.00,,,0.00,0.000000,,2013-01-25 04:02:00,
2013-01-24 21:12:00,34.0,31.0,-100.00,South,171,5.0,9.0,88,0.00,,,0.00,0.000000,,2013-01-25 04:12:00,
2013-01-24 21:32:00,33.0,31.0,-100.00,ESE,112,4.0,9.0,91,0.00,,,0.00,0.000000,,2013-01-25 04:32:00,
2013-01-24 21:42:00,33.0,31.0,-100.00,ESE,112,4.0,9.0,91,0.00,,,0.00,0.000000,,2013-01-25 04:42:00,
2013-01-24 21:52:00,33.0,31.0,-100.00,ESE,112,4.0,9.0,91,0.00,,,0.00,0.000000,,2013-01-25 04:52:00,
2013-01-24 22:03:00,33.0,31.0,-100.00,ESE,112,4.0,9.0,91,0.00,,,0.00,0.000000,,2013-01-25 05:03:00,
2013-01-24 22:12:00,33.0,31.0,-100.00,ESE,112,4.0,9.0,91,0.00,,,0.00,0.000000,,2013-01-25 05:12:00,
2013-01-24 22:32:00,32.0,30.0,-100.00,SSE,147,5.0,8.0,92,0.00,,,0.00,0.000000,,2013-01-25 05:32:00,
2013-01-24 22:43:00,32.0,30.0,-100.00,SSE,147,5.0,8.0,92,0.00,,,0.00,0.000000,,2013-01-25 05:43:00,
2013-01-24 22:52:00,32.0,30.0,-100.00,SSE,147,5.0,8.0,92,0.00,,,0.00,0.000000,,2013-01-25 05:52:00,
2013-01-24 23:02:00,32.0,30.0,-100.00,SSE,147,5.0,8.0,92,0.00,,,0.00,0.000000,,2013-01-25 06:02:00,
2013-01-24 23:11:00,32.0,30.0,-100.00,SSE,147,5.0,8.0,92,0.00,,,0.00,0.000000,,2013-01-25 06:11:00,
2013-01-24 23:32:00,33.0,31.0,-100.00,SW,228,1.0,8.0,91,0.00,,,0.00,0.000000,,2013-01-25 06:32:00,
2013-01-24 23:42:00,33.0,31.0,-100.00,SW,228,1.0,8.0,91,0.00,,,0.00,0.000000,,2013-01-25 06:42:00,
2013-01-24 23:52:00,33.0,31.0,-100.00,SW,228,1.0,8.0,91,0.00,,,0.00,0.000000,,2013-01-25 06:52:00,